sensor_id;sensor_type;location;lat;lon;timestamp;P1;durP1;ratioP1;P2;durP2;ratioP2
67902;SDS011;54708;43.612;1.568;2023-05-10T00:00:51;13.57;;;3.88;;
67902;SDS011;54708;43.612;1.568;2023-05-10T00:03:17;22.23;;;5.07;;
67902;SDS011;54708;43.612;1.568;2023-05-10T00:05:42;12.35;;;4.10;;
67902;SDS011;54708;43.612;1.568;2023-05-10T00:08:07;16.55;;;4.22;;
67902;SDS011;54708;43.612;1.568;2023-05-10T00:10:33;13.07;;;4.20;;
67902;SDS011;54708;43.612;1.568;2023-05-10T00:12:58;18.80;;;5.32;;
67902;SDS011;54708;43.612;1.568;2023-05-10T00:15:24;16.27;;;4.75;;
67902;SDS011;54708;43.612;1.568;2023-05-10T00:17:49;15.30;;;4.38;;
67902;SDS011;54708;43.612;1.568;2023-05-10T00:20:14;12.70;;;4.30;;
67902;SDS011;54708;43.612;1.568;2023-05-10T00:22:40;17.80;;;4.43;;
67902;SDS011;54708;43.612;1.568;2023-05-10T00:25:06;16.80;;;5.72;;
67902;SDS011;54708;43.612;1.568;2023-05-10T00:27:32;13.82;;;4.03;;
67902;SDS011;54708;43.612;1.568;2023-05-10T00:29:57;19.77;;;4.95;;
67902;SDS011;54708;43.612;1.568;2023-05-10T00:32:23;13.73;;;5.47;;
67902;SDS011;54708;43.612;1.568;2023-05-10T00:34:48;14.18;;;3.55;;
67902;SDS011;54708;43.612;1.568;2023-05-10T00:37:13;14.68;;;4.90;;
67902;SDS011;54708;43.612;1.568;2023-05-10T00:39:39;21.30;;;4.45;;
67902;SDS011;54708;43.612;1.568;2023-05-10T00:42:04;21.25;;;6.75;;
67902;SDS011;54708;43.612;1.568;2023-05-10T00:44:29;11.38;;;4.63;;
67902;SDS011;54708;43.612;1.568;2023-05-10T00:46:55;22.63;;;5.90;;
67902;SDS011;54708;43.612;1.568;2023-05-10T00:49:21;17.70;;;5.00;;
67902;SDS011;54708;43.612;1.568;2023-05-10T00:51:46;17.23;;;4.75;;
67902;SDS011;54708;43.612;1.568;2023-05-10T00:54:12;21.25;;;4.78;;
67902;SDS011;54708;43.612;1.568;2023-05-10T00:56:39;13.38;;;4.90;;
67902;SDS011;54708;43.612;1.568;2023-05-10T00:59:05;19.35;;;4.70;;
67902;SDS011;54708;43.612;1.568;2023-05-10T01:01:30;25.13;;;5.10;;
67902;SDS011;54708;43.612;1.568;2023-05-10T01:03:56;17.48;;;4.70;;
67902;SDS011;54708;43.612;1.568;2023-05-10T01:06:21;19.73;;;5.28;;
67902;SDS011;54708;43.612;1.568;2023-05-10T01:08:47;14.52;;;4.82;;
67902;SDS011;54708;43.612;1.568;2023-05-10T01:11:13;24.73;;;6.85;;
67902;SDS011;54708;43.612;1.568;2023-05-10T01:13:38;14.40;;;5.05;;
67902;SDS011;54708;43.612;1.568;2023-05-10T01:16:06;22.52;;;5.63;;
67902;SDS011;54708;43.612;1.568;2023-05-10T01:18:36;14.68;;;6.18;;
67902;SDS011;54708;43.612;1.568;2023-05-10T01:43:57;19.17;;;4.22;;
67902;SDS011;54708;43.612;1.568;2023-05-10T01:46:31;27.08;;;6.53;;
67902;SDS011;54708;43.612;1.568;2023-05-10T01:48:58;22.85;;;5.20;;
67902;SDS011;54708;43.612;1.568;2023-05-10T01:51:27;13.48;;;4.10;;
67902;SDS011;54708;43.612;1.568;2023-05-10T01:54:04;18.73;;;4.50;;
67902;SDS011;54708;43.612;1.568;2023-05-10T01:56:32;16.85;;;5.68;;
67902;SDS011;54708;43.612;1.568;2023-05-10T01:58:58;13.90;;;4.57;;
67902;SDS011;54708;43.612;1.568;2023-05-10T02:01:25;11.73;;;4.20;;
67902;SDS011;54708;43.612;1.568;2023-05-10T02:03:51;23.38;;;4.95;;
67902;SDS011;54708;43.612;1.568;2023-05-10T02:06:18;25.70;;;5.50;;
67902;SDS011;54708;43.612;1.568;2023-05-10T02:08:45;22.20;;;5.72;;
67902;SDS011;54708;43.612;1.568;2023-05-10T02:11:12;19.55;;;4.15;;
67902;SDS011;54708;43.612;1.568;2023-05-10T02:13:38;13.57;;;4.68;;
67902;SDS011;54708;43.612;1.568;2023-05-10T02:16:04;14.35;;;5.68;;
67902;SDS011;54708;43.612;1.568;2023-05-10T02:18:30;15.07;;;4.88;;
67902;SDS011;54708;43.612;1.568;2023-05-10T02:20:56;24.33;;;4.97;;
67902;SDS011;54708;43.612;1.568;2023-05-10T02:23:23;19.10;;;4.00;;
67902;SDS011;54708;43.612;1.568;2023-05-10T02:25:48;15.13;;;4.97;;
67902;SDS011;54708;43.612;1.568;2023-05-10T02:28:14;22.17;;;4.47;;
67902;SDS011;54708;43.612;1.568;2023-05-10T02:30:40;21.52;;;5.78;;
67902;SDS011;54708;43.612;1.568;2023-05-10T02:33:06;20.33;;;5.68;;
67902;SDS011;54708;43.612;1.568;2023-05-10T02:35:32;20.10;;;5.43;;
67902;SDS011;54708;43.612;1.568;2023-05-10T02:37:58;14.90;;;3.85;;
67902;SDS011;54708;43.612;1.568;2023-05-10T02:40:24;16.40;;;5.13;;
67902;SDS011;54708;43.612;1.568;2023-05-10T02:42:52;15.60;;;4.03;;
67902;SDS011;54708;43.612;1.568;2023-05-10T02:45:20;20.88;;;5.07;;
67902;SDS011;54708;43.612;1.568;2023-05-10T02:47:47;21.58;;;4.72;;
67902;SDS011;54708;43.612;1.568;2023-05-10T02:50:13;15.55;;;4.70;;
67902;SDS011;54708;43.612;1.568;2023-05-10T02:52:39;17.60;;;5.38;;
67902;SDS011;54708;43.612;1.568;2023-05-10T02:55:06;20.77;;;4.97;;
67902;SDS011;54708;43.612;1.568;2023-05-10T02:57:34;21.38;;;5.00;;
67902;SDS011;54708;43.612;1.568;2023-05-10T03:00:03;22.65;;;5.32;;
67902;SDS011;54708;43.612;1.568;2023-05-10T03:02:29;18.50;;;5.53;;
67902;SDS011;54708;43.612;1.568;2023-05-10T03:04:55;16.23;;;4.65;;
67902;SDS011;54708;43.612;1.568;2023-05-10T03:07:21;22.40;;;4.82;;
67902;SDS011;54708;43.612;1.568;2023-05-10T03:09:47;18.60;;;5.13;;
67902;SDS011;54708;43.612;1.568;2023-05-10T03:12:23;25.77;;;4.40;;
67902;SDS011;54708;43.612;1.568;2023-05-10T03:17:30;19.73;;;5.15;;
67902;SDS011;54708;43.612;1.568;2023-05-10T03:19:58;14.68;;;3.83;;
67902;SDS011;54708;43.612;1.568;2023-05-10T03:22:32;10.63;;;2.95;;
67902;SDS011;54708;43.612;1.568;2023-05-10T03:25:02;13.93;;;5.13;;
67902;SDS011;54708;43.612;1.568;2023-05-10T03:27:30;9.80;;;3.78;;
67902;SDS011;54708;43.612;1.568;2023-05-10T03:29:56;16.42;;;3.60;;
67902;SDS011;54708;43.612;1.568;2023-05-10T03:32:22;12.18;;;3.70;;
67902;SDS011;54708;43.612;1.568;2023-05-10T03:34:48;14.77;;;4.57;;
67902;SDS011;54708;43.612;1.568;2023-05-10T03:37:13;12.07;;;3.25;;
67902;SDS011;54708;43.612;1.568;2023-05-10T03:39:38;6.95;;;2.30;;
67902;SDS011;54708;43.612;1.568;2023-05-10T03:42:04;17.65;;;3.65;;
67902;SDS011;54708;43.612;1.568;2023-05-10T03:44:29;9.68;;;3.28;;
67902;SDS011;54708;43.612;1.568;2023-05-10T03:46:56;16.52;;;3.45;;
67902;SDS011;54708;43.612;1.568;2023-05-10T03:49:22;15.43;;;4.03;;
67902;SDS011;54708;43.612;1.568;2023-05-10T03:51:47;12.38;;;3.08;;
67902;SDS011;54708;43.612;1.568;2023-05-10T03:54:13;16.55;;;3.58;;
67902;SDS011;54708;43.612;1.568;2023-05-10T03:56:38;8.38;;;4.03;;
67902;SDS011;54708;43.612;1.568;2023-05-10T03:59:04;14.32;;;3.67;;
67902;SDS011;54708;43.612;1.568;2023-05-10T04:01:32;12.50;;;2.67;;
67902;SDS011;54708;43.612;1.568;2023-05-10T04:03:58;9.20;;;2.70;;
67902;SDS011;54708;43.612;1.568;2023-05-10T04:06:24;17.15;;;3.47;;
67902;SDS011;54708;43.612;1.568;2023-05-10T04:08:49;22.52;;;5.00;;
67902;SDS011;54708;43.612;1.568;2023-05-10T04:11:14;13.60;;;4.03;;
67902;SDS011;54708;43.612;1.568;2023-05-10T04:13:40;9.35;;;2.83;;
67902;SDS011;54708;43.612;1.568;2023-05-10T04:16:06;12.48;;;3.25;;
67902;SDS011;54708;43.612;1.568;2023-05-10T04:18:31;13.18;;;3.75;;
67902;SDS011;54708;43.612;1.568;2023-05-10T04:20:56;15.00;;;4.13;;
67902;SDS011;54708;43.612;1.568;2023-05-10T04:23:22;18.65;;;4.43;;
67902;SDS011;54708;43.612;1.568;2023-05-10T04:25:48;14.57;;;3.67;;
67902;SDS011;54708;43.612;1.568;2023-05-10T04:28:13;11.73;;;3.70;;
67902;SDS011;54708;43.612;1.568;2023-05-10T04:30:39;10.90;;;3.30;;
67902;SDS011;54708;43.612;1.568;2023-05-10T04:33:05;13.93;;;3.00;;
67902;SDS011;54708;43.612;1.568;2023-05-10T04:35:30;16.55;;;3.67;;
67902;SDS011;54708;43.612;1.568;2023-05-10T04:37:56;15.68;;;3.83;;
67902;SDS011;54708;43.612;1.568;2023-05-10T04:40:21;28.30;;;5.10;;
67902;SDS011;54708;43.612;1.568;2023-05-10T04:42:47;10.27;;;3.28;;
67902;SDS011;54708;43.612;1.568;2023-05-10T04:45:12;13.52;;;3.25;;
67902;SDS011;54708;43.612;1.568;2023-05-10T04:47:39;11.25;;;3.47;;
67902;SDS011;54708;43.612;1.568;2023-05-10T04:50:05;27.65;;;5.85;;
67902;SDS011;54708;43.612;1.568;2023-05-10T04:52:31;14.95;;;4.18;;
67902;SDS011;54708;43.612;1.568;2023-05-10T04:54:56;12.20;;;3.40;;
67902;SDS011;54708;43.612;1.568;2023-05-10T04:57:22;10.98;;;3.10;;
67902;SDS011;54708;43.612;1.568;2023-05-10T04:59:47;13.00;;;3.47;;
67902;SDS011;54708;43.612;1.568;2023-05-10T05:02:13;13.63;;;4.20;;
67902;SDS011;54708;43.612;1.568;2023-05-10T05:04:38;19.00;;;4.35;;
67902;SDS011;54708;43.612;1.568;2023-05-10T05:07:03;8.60;;;3.50;;
67902;SDS011;54708;43.612;1.568;2023-05-10T05:09:29;19.27;;;4.22;;
67902;SDS011;54708;43.612;1.568;2023-05-10T05:11:54;18.02;;;3.90;;
67902;SDS011;54708;43.612;1.568;2023-05-10T05:14:20;16.05;;;2.63;;
67902;SDS011;54708;43.612;1.568;2023-05-10T05:16:50;12.25;;;3.97;;
67902;SDS011;54708;43.612;1.568;2023-05-10T05:19:16;15.48;;;3.40;;
67902;SDS011;54708;43.612;1.568;2023-05-10T05:21:41;16.75;;;3.97;;
67902;SDS011;54708;43.612;1.568;2023-05-10T05:24:07;10.27;;;3.63;;
67902;SDS011;54708;43.612;1.568;2023-05-10T05:26:32;15.80;;;4.10;;
67902;SDS011;54708;43.612;1.568;2023-05-10T05:28:58;16.25;;;4.55;;
67902;SDS011;54708;43.612;1.568;2023-05-10T05:31:23;17.02;;;3.63;;
67902;SDS011;54708;43.612;1.568;2023-05-10T05:33:49;22.33;;;3.95;;
67902;SDS011;54708;43.612;1.568;2023-05-10T05:36:14;18.80;;;4.68;;
67902;SDS011;54708;43.612;1.568;2023-05-10T05:38:39;8.93;;;3.15;;
67902;SDS011;54708;43.612;1.568;2023-05-10T05:41:05;16.52;;;3.38;;
67902;SDS011;54708;43.612;1.568;2023-05-10T05:43:30;18.73;;;7.30;;
67902;SDS011;54708;43.612;1.568;2023-05-10T05:45:56;12.10;;;3.83;;
67902;SDS011;54708;43.612;1.568;2023-05-10T05:48:22;15.48;;;4.07;;
67902;SDS011;54708;43.612;1.568;2023-05-10T05:50:48;15.98;;;3.53;;
67902;SDS011;54708;43.612;1.568;2023-05-10T05:53:14;15.00;;;4.03;;
67902;SDS011;54708;43.612;1.568;2023-05-10T05:55:39;15.48;;;5.40;;
67902;SDS011;54708;43.612;1.568;2023-05-10T05:58:05;18.92;;;4.25;;
67902;SDS011;54708;43.612;1.568;2023-05-10T06:00:30;17.35;;;4.00;;
67902;SDS011;54708;43.612;1.568;2023-05-10T06:02:56;16.70;;;3.90;;
67902;SDS011;54708;43.612;1.568;2023-05-10T06:05:21;12.45;;;3.55;;
67902;SDS011;54708;43.612;1.568;2023-05-10T06:07:47;28.80;;;6.20;;
67902;SDS011;54708;43.612;1.568;2023-05-10T06:10:12;15.43;;;3.70;;
67902;SDS011;54708;43.612;1.568;2023-05-10T06:12:38;21.05;;;4.70;;
67902;SDS011;54708;43.612;1.568;2023-05-10T06:15:03;16.77;;;4.60;;
67902;SDS011;54708;43.612;1.568;2023-05-10T06:17:29;19.70;;;4.50;;
67902;SDS011;54708;43.612;1.568;2023-05-10T06:19:55;34.63;;;5.10;;
67902;SDS011;54708;43.612;1.568;2023-05-10T06:22:20;14.10;;;3.75;;
67902;SDS011;54708;43.612;1.568;2023-05-10T06:24:47;19.70;;;4.22;;
67902;SDS011;54708;43.612;1.568;2023-05-10T06:27:13;19.02;;;4.47;;
67902;SDS011;54708;43.612;1.568;2023-05-10T06:29:39;17.23;;;5.15;;
67902;SDS011;54708;43.612;1.568;2023-05-10T06:32:04;11.73;;;3.15;;
67902;SDS011;54708;43.612;1.568;2023-05-10T06:34:30;17.67;;;3.95;;
67902;SDS011;54708;43.612;1.568;2023-05-10T06:36:55;20.27;;;4.03;;
67902;SDS011;54708;43.612;1.568;2023-05-10T06:39:20;16.80;;;4.10;;
67902;SDS011;54708;43.612;1.568;2023-05-10T06:41:46;21.33;;;4.13;;
67902;SDS011;54708;43.612;1.568;2023-05-10T06:44:11;13.18;;;3.80;;
67902;SDS011;54708;43.612;1.568;2023-05-10T06:46:37;9.70;;;4.15;;
67902;SDS011;54708;43.612;1.568;2023-05-10T06:49:03;17.00;;;5.43;;
67902;SDS011;54708;43.612;1.568;2023-05-10T06:51:29;13.70;;;4.05;;
67902;SDS011;54708;43.612;1.568;2023-05-10T06:53:54;15.02;;;4.55;;
67902;SDS011;54708;43.612;1.568;2023-05-10T06:56:20;22.95;;;3.83;;
67902;SDS011;54708;43.612;1.568;2023-05-10T06:58:46;13.02;;;4.32;;
67902;SDS011;54708;43.612;1.568;2023-05-10T07:01:12;12.82;;;3.47;;
67902;SDS011;54708;43.612;1.568;2023-05-10T07:03:38;13.85;;;3.53;;
67902;SDS011;54708;43.612;1.568;2023-05-10T07:06:03;15.07;;;3.80;;
67902;SDS011;54708;43.612;1.568;2023-05-10T07:08:30;16.55;;;4.82;;
67902;SDS011;54708;43.612;1.568;2023-05-10T07:11:02;22.00;;;4.55;;
67902;SDS011;54708;43.612;1.568;2023-05-10T07:15:55;20.42;;;4.35;;
67902;SDS011;54708;43.612;1.568;2023-05-10T07:18:20;20.23;;;4.43;;
67902;SDS011;54708;43.612;1.568;2023-05-10T07:20:46;22.15;;;4.20;;
67902;SDS011;54708;43.612;1.568;2023-05-10T07:23:11;23.98;;;4.10;;
67902;SDS011;54708;43.612;1.568;2023-05-10T07:25:36;13.73;;;3.65;;
67902;SDS011;54708;43.612;1.568;2023-05-10T07:28:02;14.50;;;3.55;;
67902;SDS011;54708;43.612;1.568;2023-05-10T07:30:28;22.85;;;4.65;;
67902;SDS011;54708;43.612;1.568;2023-05-10T07:32:53;22.73;;;4.07;;
67902;SDS011;54708;43.612;1.568;2023-05-10T07:35:19;15.60;;;3.75;;
67902;SDS011;54708;43.612;1.568;2023-05-10T07:37:44;15.38;;;3.55;;
67902;SDS011;54708;43.612;1.568;2023-05-10T07:40:10;13.57;;;4.60;;
67902;SDS011;54708;43.612;1.568;2023-05-10T07:42:35;18.75;;;4.30;;
67902;SDS011;54708;43.612;1.568;2023-05-10T07:45:01;14.13;;;3.78;;
67902;SDS011;54708;43.612;1.568;2023-05-10T07:47:26;15.88;;;3.72;;
67902;SDS011;54708;43.612;1.568;2023-05-10T07:49:52;16.88;;;3.10;;
67902;SDS011;54708;43.612;1.568;2023-05-10T07:52:17;18.73;;;3.50;;
67902;SDS011;54708;43.612;1.568;2023-05-10T07:54:43;11.95;;;3.45;;
67902;SDS011;54708;43.612;1.568;2023-05-10T07:57:09;9.50;;;3.42;;
67902;SDS011;54708;43.612;1.568;2023-05-10T07:59:34;16.40;;;3.92;;
67902;SDS011;54708;43.612;1.568;2023-05-10T08:02:00;16.55;;;4.03;;
67902;SDS011;54708;43.612;1.568;2023-05-10T08:04:25;20.75;;;4.88;;
67902;SDS011;54708;43.612;1.568;2023-05-10T08:06:51;14.18;;;4.28;;
67902;SDS011;54708;43.612;1.568;2023-05-10T08:09:16;16.98;;;4.15;;
67902;SDS011;54708;43.612;1.568;2023-05-10T08:11:42;16.52;;;4.85;;
67902;SDS011;54708;43.612;1.568;2023-05-10T08:14:08;15.68;;;4.35;;
67902;SDS011;54708;43.612;1.568;2023-05-10T08:16:33;21.55;;;3.90;;
67902;SDS011;54708;43.612;1.568;2023-05-10T08:18:59;14.18;;;3.35;;
67902;SDS011;54708;43.612;1.568;2023-05-10T08:21:24;15.70;;;3.90;;
67902;SDS011;54708;43.612;1.568;2023-05-10T08:23:51;15.38;;;3.13;;
67902;SDS011;54708;43.612;1.568;2023-05-10T08:26:16;13.48;;;3.15;;
67902;SDS011;54708;43.612;1.568;2023-05-10T08:28:41;14.88;;;4.05;;
67902;SDS011;54708;43.612;1.568;2023-05-10T08:31:07;19.00;;;2.95;;
67902;SDS011;54708;43.612;1.568;2023-05-10T08:33:32;16.10;;;2.90;;
67902;SDS011;54708;43.612;1.568;2023-05-10T08:35:57;11.05;;;2.47;;
67902;SDS011;54708;43.612;1.568;2023-05-10T08:38:23;9.05;;;2.28;;
67902;SDS011;54708;43.612;1.568;2023-05-10T08:40:49;18.08;;;3.15;;
67902;SDS011;54708;43.612;1.568;2023-05-10T08:43:15;8.25;;;2.72;;
67902;SDS011;54708;43.612;1.568;2023-05-10T08:45:42;12.73;;;3.33;;
67902;SDS011;54708;43.612;1.568;2023-05-10T08:48:09;13.95;;;3.17;;
67902;SDS011;54708;43.612;1.568;2023-05-10T08:50:39;7.45;;;2.40;;
67902;SDS011;54708;43.612;1.568;2023-05-10T08:53:09;16.80;;;3.00;;
67902;SDS011;54708;43.612;1.568;2023-05-10T08:55:36;12.18;;;3.25;;
67902;SDS011;54708;43.612;1.568;2023-05-10T08:58:03;15.18;;;3.88;;
67902;SDS011;54708;43.612;1.568;2023-05-10T09:00:31;7.75;;;3.00;;
67902;SDS011;54708;43.612;1.568;2023-05-10T09:02:57;15.18;;;2.65;;
67902;SDS011;54708;43.612;1.568;2023-05-10T09:05:24;8.43;;;2.90;;
67902;SDS011;54708;43.612;1.568;2023-05-10T09:07:49;9.85;;;2.72;;
67902;SDS011;54708;43.612;1.568;2023-05-10T09:10:15;7.35;;;3.03;;
67902;SDS011;54708;43.612;1.568;2023-05-10T09:12:40;7.38;;;2.20;;
67902;SDS011;54708;43.612;1.568;2023-05-10T09:15:07;14.15;;;2.17;;
67902;SDS011;54708;43.612;1.568;2023-05-10T09:17:32;14.35;;;3.92;;
67902;SDS011;54708;43.612;1.568;2023-05-10T09:19:59;16.38;;;3.45;;
67902;SDS011;54708;43.612;1.568;2023-05-10T09:22:28;11.02;;;2.75;;
67902;SDS011;54708;43.612;1.568;2023-05-10T09:27:34;9.40;;;2.72;;
67902;SDS011;54708;43.612;1.568;2023-05-10T09:30:00;12.55;;;3.03;;
67902;SDS011;54708;43.612;1.568;2023-05-10T09:32:35;13.02;;;4.00;;
67902;SDS011;54708;43.612;1.568;2023-05-10T09:35:06;7.07;;;2.13;;
67902;SDS011;54708;43.612;1.568;2023-05-10T09:37:35;11.88;;;3.55;;
67902;SDS011;54708;43.612;1.568;2023-05-10T09:40:00;9.68;;;2.10;;
67902;SDS011;54708;43.612;1.568;2023-05-10T09:42:29;9.52;;;2.17;;
67902;SDS011;54708;43.612;1.568;2023-05-10T09:44:54;7.85;;;2.53;;
67902;SDS011;54708;43.612;1.568;2023-05-10T09:47:25;11.55;;;2.83;;
67902;SDS011;54708;43.612;1.568;2023-05-10T09:49:52;9.63;;;2.58;;
67902;SDS011;54708;43.612;1.568;2023-05-10T09:52:18;9.55;;;2.38;;
67902;SDS011;54708;43.612;1.568;2023-05-10T09:54:53;13.40;;;3.05;;
67902;SDS011;54708;43.612;1.568;2023-05-10T09:57:22;10.18;;;2.58;;
67902;SDS011;54708;43.612;1.568;2023-05-10T09:59:49;8.27;;;2.85;;
67902;SDS011;54708;43.612;1.568;2023-05-10T10:02:15;5.32;;;2.50;;
67902;SDS011;54708;43.612;1.568;2023-05-10T10:04:41;9.43;;;2.72;;
67902;SDS011;54708;43.612;1.568;2023-05-10T10:07:07;11.88;;;2.55;;
67902;SDS011;54708;43.612;1.568;2023-05-10T10:09:33;9.85;;;2.05;;
67902;SDS011;54708;43.612;1.568;2023-05-10T10:12:02;8.35;;;1.88;;
67902;SDS011;54708;43.612;1.568;2023-05-10T10:14:30;7.60;;;3.35;;
67902;SDS011;54708;43.612;1.568;2023-05-10T10:16:56;7.20;;;2.28;;
67902;SDS011;54708;43.612;1.568;2023-05-10T10:19:21;5.63;;;2.30;;
67902;SDS011;54708;43.612;1.568;2023-05-10T10:21:47;13.15;;;2.67;;
67902;SDS011;54708;43.612;1.568;2023-05-10T10:24:14;10.75;;;3.58;;
67902;SDS011;54708;43.612;1.568;2023-05-10T10:26:40;7.13;;;2.20;;
67902;SDS011;54708;43.612;1.568;2023-05-10T10:34:46;7.85;;;1.98;;
67902;SDS011;54708;43.612;1.568;2023-05-10T10:37:12;5.45;;;2.35;;
67902;SDS011;54708;43.612;1.568;2023-05-10T10:39:37;8.23;;;1.83;;
67902;SDS011;54708;43.612;1.568;2023-05-10T10:42:03;6.63;;;2.10;;
67902;SDS011;54708;43.612;1.568;2023-05-10T10:47:34;9.13;;;2.05;;
67902;SDS011;54708;43.612;1.568;2023-05-10T10:50:03;6.95;;;2.55;;
67902;SDS011;54708;43.612;1.568;2023-05-10T10:52:31;9.30;;;2.25;;
67902;SDS011;54708;43.612;1.568;2023-05-10T10:57:26;8.38;;;2.47;;
67902;SDS011;54708;43.612;1.568;2023-05-10T11:02:59;7.00;;;1.75;;
67902;SDS011;54708;43.612;1.568;2023-05-10T11:05:40;9.10;;;3.00;;
67902;SDS011;54708;43.612;1.568;2023-05-10T11:13:29;8.93;;;2.22;;
67902;SDS011;54708;43.612;1.568;2023-05-10T11:19:06;8.43;;;2.67;;
67902;SDS011;54708;43.612;1.568;2023-05-10T11:21:33;13.95;;;3.33;;
67902;SDS011;54708;43.612;1.568;2023-05-10T11:23:59;11.02;;;2.40;;
67902;SDS011;54708;43.612;1.568;2023-05-10T11:26:30;8.20;;;2.10;;
67902;SDS011;54708;43.612;1.568;2023-05-10T11:28:57;10.43;;;2.25;;
67902;SDS011;54708;43.612;1.568;2023-05-10T11:31:24;8.07;;;2.50;;
67902;SDS011;54708;43.612;1.568;2023-05-10T11:33:55;6.95;;;2.13;;
67902;SDS011;54708;43.612;1.568;2023-05-10T11:36:26;8.98;;;1.65;;
67902;SDS011;54708;43.612;1.568;2023-05-10T11:38:53;7.22;;;2.10;;
67902;SDS011;54708;43.612;1.568;2023-05-10T11:41:19;9.45;;;2.55;;
67902;SDS011;54708;43.612;1.568;2023-05-10T11:43:51;7.53;;;2.55;;
67902;SDS011;54708;43.612;1.568;2023-05-10T11:46:18;7.05;;;1.98;;
67902;SDS011;54708;43.612;1.568;2023-05-10T11:48:45;3.05;;;1.65;;
67902;SDS011;54708;43.612;1.568;2023-05-10T11:51:12;9.38;;;2.33;;
67902;SDS011;54708;43.612;1.568;2023-05-10T11:53:38;4.78;;;2.53;;
67902;SDS011;54708;43.612;1.568;2023-05-10T11:56:07;6.60;;;2.22;;
67902;SDS011;54708;43.612;1.568;2023-05-10T11:58:34;7.88;;;2.10;;
67902;SDS011;54708;43.612;1.568;2023-05-10T12:01:01;13.98;;;2.55;;
67902;SDS011;54708;43.612;1.568;2023-05-10T12:03:27;5.82;;;2.13;;
67902;SDS011;54708;43.612;1.568;2023-05-10T12:05:53;12.05;;;2.20;;
67902;SDS011;54708;43.612;1.568;2023-05-10T12:08:21;9.38;;;3.35;;
67902;SDS011;54708;43.612;1.568;2023-05-10T12:10:48;6.88;;;1.90;;
67902;SDS011;54708;43.612;1.568;2023-05-10T12:13:13;5.63;;;1.95;;
67902;SDS011;54708;43.612;1.568;2023-05-10T12:15:40;6.05;;;2.10;;
67902;SDS011;54708;43.612;1.568;2023-05-10T12:18:05;5.80;;;1.60;;
67902;SDS011;54708;43.612;1.568;2023-05-10T12:20:31;8.77;;;2.00;;
67902;SDS011;54708;43.612;1.568;2023-05-10T12:22:57;3.17;;;1.30;;
67902;SDS011;54708;43.612;1.568;2023-05-10T12:25:34;2.95;;;1.10;;
67902;SDS011;54708;43.612;1.568;2023-05-10T12:28:02;5.55;;;1.20;;
67902;SDS011;54708;43.612;1.568;2023-05-10T12:30:30;3.38;;;1.15;;
67902;SDS011;54708;43.612;1.568;2023-05-10T12:33:00;2.47;;;1.10;;
67902;SDS011;54708;43.612;1.568;2023-05-10T12:35:26;3.17;;;1.08;;
67902;SDS011;54708;43.612;1.568;2023-05-10T12:37:53;1.77;;;1.00;;
67902;SDS011;54708;43.612;1.568;2023-05-10T12:40:18;4.28;;;1.08;;
67902;SDS011;54708;43.612;1.568;2023-05-10T12:42:43;4.63;;;1.10;;
67902;SDS011;54708;43.612;1.568;2023-05-10T12:45:10;3.78;;;1.05;;
67902;SDS011;54708;43.612;1.568;2023-05-10T12:47:36;2.95;;;1.05;;
67902;SDS011;54708;43.612;1.568;2023-05-10T12:50:02;5.18;;;2.72;;
67902;SDS011;54708;43.612;1.568;2023-05-10T12:52:28;3.72;;;1.27;;
67902;SDS011;54708;43.612;1.568;2023-05-10T12:54:53;4.43;;;1.33;;
67902;SDS011;54708;43.612;1.568;2023-05-10T12:57:22;4.55;;;1.33;;
67902;SDS011;54708;43.612;1.568;2023-05-10T12:59:47;2.58;;;0.93;;
67902;SDS011;54708;43.612;1.568;2023-05-10T13:02:13;4.85;;;1.05;;
67902;SDS011;54708;43.612;1.568;2023-05-10T13:04:39;6.20;;;1.58;;
67902;SDS011;54708;43.612;1.568;2023-05-10T13:07:06;4.65;;;1.80;;
67902;SDS011;54708;43.612;1.568;2023-05-10T13:09:31;4.20;;;1.48;;
67902;SDS011;54708;43.612;1.568;2023-05-10T13:11:57;5.63;;;1.30;;
67902;SDS011;54708;43.612;1.568;2023-05-10T13:14:22;3.50;;;1.23;;
67902;SDS011;54708;43.612;1.568;2023-05-10T13:16:48;5.45;;;1.80;;
67902;SDS011;54708;43.612;1.568;2023-05-10T13:19:13;7.55;;;2.63;;
67902;SDS011;54708;43.612;1.568;2023-05-10T13:21:39;5.15;;;1.17;;
67902;SDS011;54708;43.612;1.568;2023-05-10T13:24:07;3.40;;;1.63;;
67902;SDS011;54708;43.612;1.568;2023-05-10T13:26:33;6.72;;;1.85;;
67902;SDS011;54708;43.612;1.568;2023-05-10T13:28:58;5.20;;;1.15;;
67902;SDS011;54708;43.612;1.568;2023-05-10T13:31:24;4.70;;;1.10;;
67902;SDS011;54708;43.612;1.568;2023-05-10T13:33:49;6.70;;;2.03;;
67902;SDS011;54708;43.612;1.568;2023-05-10T13:36:15;2.25;;;1.20;;
67902;SDS011;54708;43.612;1.568;2023-05-10T13:38:40;6.32;;;1.33;;
67902;SDS011;54708;43.612;1.568;2023-05-10T13:41:05;4.82;;;1.10;;
67902;SDS011;54708;43.612;1.568;2023-05-10T13:43:31;4.32;;;0.93;;
67902;SDS011;54708;43.612;1.568;2023-05-10T13:45:56;4.57;;;0.98;;
67902;SDS011;54708;43.612;1.568;2023-05-10T13:48:22;9.40;;;1.30;;
67902;SDS011;54708;43.612;1.568;2023-05-10T13:50:47;3.40;;;1.10;;
67902;SDS011;54708;43.612;1.568;2023-05-10T13:53:12;6.30;;;1.10;;
67902;SDS011;54708;43.612;1.568;2023-05-10T13:55:39;4.35;;;0.95;;
67902;SDS011;54708;43.612;1.568;2023-05-10T13:58:04;5.53;;;1.60;;
67902;SDS011;54708;43.612;1.568;2023-05-10T14:00:30;2.67;;;1.10;;
67902;SDS011;54708;43.612;1.568;2023-05-10T14:02:55;6.32;;;1.05;;
67902;SDS011;54708;43.612;1.568;2023-05-10T14:05:21;6.05;;;1.67;;
67902;SDS011;54708;43.612;1.568;2023-05-10T14:07:46;6.43;;;1.30;;
67902;SDS011;54708;43.612;1.568;2023-05-10T14:10:12;4.30;;;1.70;;
67902;SDS011;54708;43.612;1.568;2023-05-10T14:12:37;11.48;;;1.95;;
67902;SDS011;54708;43.612;1.568;2023-05-10T14:15:03;3.10;;;1.30;;
67902;SDS011;54708;43.612;1.568;2023-05-10T14:17:31;5.55;;;1.77;;
67902;SDS011;54708;43.612;1.568;2023-05-10T14:19:56;4.78;;;2.55;;
67902;SDS011;54708;43.612;1.568;2023-05-10T14:22:22;5.13;;;1.38;;
67902;SDS011;54708;43.612;1.568;2023-05-10T14:24:47;7.32;;;1.85;;
67902;SDS011;54708;43.612;1.568;2023-05-10T14:27:13;3.95;;;1.70;;
67902;SDS011;54708;43.612;1.568;2023-05-10T14:29:39;3.63;;;1.35;;
67902;SDS011;54708;43.612;1.568;2023-05-10T14:32:04;6.93;;;2.08;;
67902;SDS011;54708;43.612;1.568;2023-05-10T14:34:30;4.50;;;1.30;;
67902;SDS011;54708;43.612;1.568;2023-05-10T14:36:55;3.92;;;1.23;;
67902;SDS011;54708;43.612;1.568;2023-05-10T14:39:21;8.95;;;2.17;;
67902;SDS011;54708;43.612;1.568;2023-05-10T14:41:46;2.60;;;1.42;;
67902;SDS011;54708;43.612;1.568;2023-05-10T14:44:12;4.75;;;1.40;;
67902;SDS011;54708;43.612;1.568;2023-05-10T14:46:38;7.07;;;2.42;;
67902;SDS011;54708;43.612;1.568;2023-05-10T14:49:04;7.85;;;2.90;;
67902;SDS011;54708;43.612;1.568;2023-05-10T14:51:29;6.80;;;1.88;;
67902;SDS011;54708;43.612;1.568;2023-05-10T14:53:55;5.38;;;1.65;;
67902;SDS011;54708;43.612;1.568;2023-05-10T14:56:21;4.75;;;1.50;;
67902;SDS011;54708;43.612;1.568;2023-05-10T14:58:47;7.70;;;1.55;;
67902;SDS011;54708;43.612;1.568;2023-05-10T15:01:12;4.47;;;1.30;;
67902;SDS011;54708;43.612;1.568;2023-05-10T15:03:37;4.72;;;1.40;;
67902;SDS011;54708;43.612;1.568;2023-05-10T15:06:03;8.70;;;2.63;;
67902;SDS011;54708;43.612;1.568;2023-05-10T15:08:29;5.43;;;1.30;;
67902;SDS011;54708;43.612;1.568;2023-05-10T15:10:54;4.38;;;1.60;;
67902;SDS011;54708;43.612;1.568;2023-05-10T15:13:20;4.50;;;2.25;;
67902;SDS011;54708;43.612;1.568;2023-05-10T15:15:46;4.38;;;1.55;;
67902;SDS011;54708;43.612;1.568;2023-05-10T15:18:11;5.07;;;1.58;;
67902;SDS011;54708;43.612;1.568;2023-05-10T15:20:37;5.30;;;1.80;;
67902;SDS011;54708;43.612;1.568;2023-05-10T15:23:02;4.25;;;1.27;;
67902;SDS011;54708;43.612;1.568;2023-05-10T15:25:28;4.18;;;1.48;;
67902;SDS011;54708;43.612;1.568;2023-05-10T15:27:53;5.55;;;1.58;;